Time;durP1;ratioP1;P1;durP2;ratioP2;P2;SDS_P1;SDS_P2;PMS_P1;PMS_P2;Temp;Humidity;BMP_temperature;BMP_pressure;BME280_temperature;BME280_humidity;BME280_pressure;Samples;Min_cycle;Max_cycle;Signal;HPM_P1;HPM_P2
2021/06/18 00:00:23;;;;;;;12.93;10.82;;;;;;;;;;3582333;40;20040;-59
2021/06/18 00:02:49;;;;;;;12.43;11.23;;;;;;;;;;3580650;40;20603;-59
2021/06/18 00:05:15;;;;;;;14.45;10.63;;;;;;;;;;3581967;40;20040;-59
2021/06/18 00:07:43;;;;;;;12.57;11.40;;;;;;;;;;3580956;40;22357;-59
2021/06/18 00:10:10;;;;;;;12.13;10.93;;;;;;;;;;3582080;40;20052;-59
2021/06/18 00:12:36;;;;;;;11.65;10.52;;;;;;;;;;3582039;40;20261;-60
2021/06/18 00:15:03;;;;;;;11.57;10.48;;;;;;;;;;3581754;40;20073;-60
2021/06/18 00:17:29;;;;;;;10.60;8.88;;;;;;;;;;3581238;40;20037;-59
2021/06/18 00:19:55;;;;;;;10.77;9.02;;;;;;;;;;3582586;40;20052;-59
2021/06/18 00:22:20;;;;;;;11.25;9.93;;;;;;;;;;3581199;40;20036;-59
2021/06/18 00:24:46;;;;;;;10.77;9.68;;;;;;;;;;3581753;40;20120;-59
2021/06/18 00:27:12;;;;;;;12.32;9.13;;;;;;;;;;3580789;40;20045;-59
2021/06/18 00:29:37;;;;;;;11.48;9.65;;;;;;;;;;3581408;40;20508;-59
2021/06/18 00:32:03;;;;;;;10.82;9.27;;;;;;;;;;3574490;40;20044;-59
2021/06/18 00:34:29;;;;;;;10.88;9.77;;;;;;;;;;3575836;40;20365;-59
2021/06/18 00:36:54;;;;;;;13.80;9.75;;;;;;;;;;3579110;40;20519;-59
2021/06/18 00:39:20;;;;;;;10.57;9.55;;;;;;;;;;3580552;40;20059;-59
2021/06/18 00:41:46;;;;;;;10.35;9.35;;;;;;;;;;3582241;40;20045;-59
2021/06/18 00:44:11;;;;;;;11.02;9.93;;;;;;;;;;3581734;40;20041;-60
2021/06/18 00:46:37;;;;;;;11.57;10.20;;;;;;;;;;3582270;40;20075;-59
2021/06/18 00:49:02;;;;;;;13.13;9.57;;;;;;;;;;3584429;40;20044;-59
2021/06/18 00:51:28;;;;;;;9.77;8.75;;;;;;;;;;3578606;40;20029;-60
2021/06/18 00:53:55;;;;;;;10.75;9.65;;;;;;;;;;3580738;40;20048;-60
2021/06/18 00:56:21;;;;;;;10.70;9.55;;;;;;;;;;3582031;40;20065;-60
2021/06/18 00:58:47;;;;;;;14.85;8.75;;;;;;;;;;3580850;40;20045;-60
2021/06/18 01:01:12;;;;;;;10.02;8.60;;;;;;;;;;3581132;40;20044;-60
2021/06/18 01:03:38;;;;;;;9.32;8.43;;;;;;;;;;3582839;40;20168;-59
2021/06/18 01:06:04;;;;;;;10.18;8.45;;;;;;;;;;3578994;40;20404;-60
2021/06/18 01:08:38;;;;;;;10.85;8.90;;;;;;;;;;3580351;40;20026;-60
2021/06/18 01:11:37;;;;;;;9.52;8.52;;;;;;;;;;3581276;40;20040;-59
2021/06/18 01:14:17;;;;;;;18.45;8.52;;;;;;;;;;3582954;40;20040;-60
2021/06/18 01:16:51;;;;;;;;;;;;;;;;;;3580153;40;20057;-59
2021/06/18 01:19:35;;;;;;;11.63;8.30;;;;;;;;;;3580429;40;19924;-60
2021/06/18 01:22:05;;;;;;;9.60;8.68;;;;;;;;;;3580681;40;20035;-60
2021/06/18 01:25:06;;;;;;;10.82;9.10;;;;;;;;;;3582001;40;20032;-59
2021/06/18 01:27:31;;;;;;;9.98;8.75;;;;;;;;;;3572776;40;20036;-59
2021/06/18 01:30:06;;;;;;;11.20;8.88;;;;;;;;;;3581447;40;20062;-59
2021/06/18 01:32:39;;;;;;;10.65;9.60;;;;;;;;;;3582007;40;20036;-59
2021/06/18 01:35:07;;;;;;;13.15;9.18;;;;;;;;;;3572922;40;20045;-59
2021/06/18 01:37:34;;;;;;;11.85;9.77;;;;;;;;;;3579723;40;20037;-59
2021/06/18 01:40:05;;;;;;;11.35;9.80;;;;;;;;;;3571380;40;20040;-60
2021/06/18 01:42:34;;;;;;;11.30;10.02;;;;;;;;;;3579604;40;20158;-59
2021/06/18 01:45:00;;;;;;;12.10;10.57;;;;;;;;;;3580360;40;20095;-59
2021/06/18 01:47:26;;;;;;;11.82;10.63;;;;;;;;;;3581102;40;20051;-59
2021/06/18 01:49:53;;;;;;;13.27;11.68;;;;;;;;;;3581352;40;20052;-59
2021/06/18 01:52:20;;;;;;;13.52;12.07;;;;;;;;;;3580610;40;20474;-60
2021/06/18 01:54:49;;;;;;;15.45;13.65;;;;;;;;;;3580106;40;20040;-59
2021/06/18 01:57:15;;;;;;;14.35;13.10;;;;;;;;;;3580289;40;20032;-59
2021/06/18 01:59:42;;;;;;;16.13;14.52;;;;;;;;;;3580111;40;20115;-59
2021/06/18 02:02:09;;;;;;;15.23;13.82;;;;;;;;;;3581987;40;20025;-59
2021/06/18 02:04:38;;;;;;;17.17;15.70;;;;;;;;;;3580204;40;20311;-59
2021/06/18 02:07:05;;;;;;;17.48;15.88;;;;;;;;;;3579000;40;20021;-59
2021/06/18 02:09:33;;;;;;;16.60;14.98;;;;;;;;;;3580198;40;20040;-60
2021/06/18 02:11:59;;;;;;;16.80;13.68;;;;;;;;;;3570522;40;20036;-59
2021/06/18 02:14:28;;;;;;;17.58;15.98;;;;;;;;;;3580542;40;20041;-59
2021/06/18 02:16:57;;;;;;;16.52;15.13;;;;;;;;;;3580004;40;20044;-58
2021/06/18 02:19:24;;;;;;;16.08;14.68;;;;;;;;;;3580850;40;20040;-59
2021/06/18 02:21:52;;;;;;;17.95;15.13;;;;;;;;;;3580130;40;20098;-59
2021/06/18 02:24:19;;;;;;;17.65;16.05;;;;;;;;;;3573453;40;20029;-59
2021/06/18 02:26:46;;;;;;;15.88;14.38;;;;;;;;;;3579451;40;20059;-59
2021/06/18 02:29:12;;;;;;;16.35;14.82;;;;;;;;;;3582216;40;20037;-59
2021/06/18 02:31:39;;;;;;;19.17;14.82;;;;;;;;;;3580087;40;20259;-60
2021/06/18 02:34:08;;;;;;;22.83;15.43;;;;;;;;;;3580336;40;20344;-60
2021/06/18 02:36:37;;;;;;;16.55;15.05;;;;;;;;;;3571821;40;20336;-60
2021/06/18 02:39:05;;;;;;;15.27;13.85;;;;;;;;;;3580769;40;20045;-59
2021/06/18 02:41:30;;;;;;;16.52;15.13;;;;;;;;;;3580242;40;20104;-59
2021/06/18 02:43:56;;;;;;;17.58;15.90;;;;;;;;;;3579918;40;20047;-59
2021/06/18 02:46:33;;;;;;;15.02;13.25;;;;;;;;;;3580434;40;20143;-59
2021/06/18 02:49:00;;;;;;;13.95;12.73;;;;;;;;;;3579975;40;20052;-59
2021/06/18 02:51:45;;;;;;;15.02;12.70;;;;;;;;;;3580387;40;20043;-59
2021/06/18 02:54:34;;;;;;;12.02;10.88;;;;;;;;;;3581119;40;20040;-60
2021/06/18 02:57:09;;;;;;;12.02;10.82;;;;;;;;;;3578677;40;20044;-60
2021/06/18 02:59:34;;;;;;;13.55;11.27;;;;;;;;;;3579693;40;20108;-60
2021/06/18 03:02:01;;;;;;;12.40;11.13;;;;;;;;;;3582040;40;20121;-60
2021/06/18 03:04:31;;;;;;;11.98;10.75;;;;;;;;;;3581115;40;20048;-60
2021/06/18 03:07:07;;;;;;;11.07;9.95;;;;;;;;;;3575894;40;20036;-59
2021/06/18 03:09:36;;;;;;;11.25;10.07;;;;;;;;;;3580259;40;20073;-60
2021/06/18 03:12:04;;;;;;;12.00;10.20;;;;;;;;;;3580997;40;20276;-60
2021/06/18 03:14:35;;;;;;;13.13;10.27;;;;;;;;;;3580402;40;20037;-60
2021/06/18 03:17:03;;;;;;;11.38;10.25;;;;;;;;;;3581023;40;20327;-60
2021/06/18 03:19:32;;;;;;;23.13;13.23;;;;;;;;;;3571811;40;20134;-60
2021/06/18 03:22:04;;;;;;;11.80;10.70;;;;;;;;;;3571608;40;20073;-59
2021/06/18 03:24:31;;;;;;;12.27;11.07;;;;;;;;;;3581415;40;20533;-59
2021/06/18 03:26:58;;;;;;;11.45;10.35;;;;;;;;;;3579198;40;20045;-59
2021/06/18 03:29:26;;;;;;;12.85;10.80;;;;;;;;;;3582025;40;20530;-59
2021/06/18 03:31:54;;;;;;;13.73;11.90;;;;;;;;;;3583036;40;20639;-59
2021/06/18 03:34:19;;;;;;;12.63;11.38;;;;;;;;;;3581429;40;20126;-59
2021/06/18 03:36:46;;;;;;;13.88;12.57;;;;;;;;;;3582321;40;20044;-59
2021/06/18 03:39:12;;;;;;;13.85;12.65;;;;;;;;;;3573545;40;20081;-60
2021/06/18 03:41:38;;;;;;;14.27;12.23;;;;;;;;;;3573865;40;20480;-60
2021/06/18 03:44:04;;;;;;;20.23;12.75;;;;;;;;;;3583023;40;20043;-59
2021/06/18 03:46:30;;;;;;;14.90;12.52;;;;;;;;;;3582207;40;20036;-59
2021/06/18 03:48:58;;;;;;;14.90;13.45;;;;;;;;;;3572013;40;20355;-59
2021/06/18 03:51:23;;;;;;;14.82;13.52;;;;;;;;;;3581372;40;20049;-59
2021/06/18 03:53:49;;;;;;;14.15;12.65;;;;;;;;;;3579765;40;20146;-59
2021/06/18 03:56:17;;;;;;;15.70;13.48;;;;;;;;;;3580777;40;20041;-59
2021/06/18 03:58:45;;;;;;;16.40;14.70;;;;;;;;;;3582000;40;20033;-59
2021/06/18 04:01:12;;;;;;;16.63;14.88;;;;;;;;;;3581454;40;20025;-59
2021/06/18 04:03:40;;;;;;;15.25;13.85;;;;;;;;;;3581639;40;20242;-59
2021/06/18 04:06:06;;;;;;;14.95;13.50;;;;;;;;;;3581028;40;20122;-59
2021/06/18 04:08:35;;;;;;;26.15;14.60;;;;;;;;;;3581206;40;20141;-59
2021/06/18 04:11:00;;;;;;;15.02;13.55;;;;;;;;;;3581355;40;20536;-59
2021/06/18 04:13:26;;;;;;;13.55;12.20;;;;;;;;;;3582683;40;20033;-58
2021/06/18 04:15:52;;;;;;;14.98;13.68;;;;;;;;;;3581785;40;20056;-58
2021/06/18 04:18:20;;;;;;;14.65;12.75;;;;;;;;;;3583014;40;20045;-58
2021/06/18 04:20:48;;;;;;;12.88;11.68;;;;;;;;;;3580045;40;20040;-59
2021/06/18 04:23:13;;;;;;;14.07;12.70;;;;;;;;;;3582462;40;20180;-59
2021/06/18 04:25:39;;;;;;;13.27;11.98;;;;;;;;;;3581830;40;20044;-59
2021/06/18 04:28:06;;;;;;;12.77;11.48;;;;;;;;;;3572472;40;20358;-59
2021/06/18 04:30:31;;;;;;;14.75;11.20;;;;;;;;;;3581903;40;20300;-59
2021/06/18 04:32:57;;;;;;;15.52;12.80;;;;;;;;;;3579316;40;20033;-59
2021/06/18 04:35:22;;;;;;;15.93;14.32;;;;;;;;;;3581441;40;20048;-59
2021/06/18 04:37:48;;;;;;;14.38;13.00;;;;;;;;;;3580929;40;20130;-59
2021/06/18 04:40:14;;;;;;;13.82;12.10;;;;;;;;;;3582250;40;20569;-59
2021/06/18 04:42:39;;;;;;;13.77;11.43;;;;;;;;;;3582819;40;20062;-58
2021/06/18 04:45:06;;;;;;;12.30;10.95;;;;;;;;;;3581346;40;20044;-58
2021/06/18 04:47:31;;;;;;;10.80;9.80;;;;;;;;;;3580869;40;20419;-58
2021/06/18 04:49:57;;;;;;;13.38;10.55;;;;;;;;;;3582415;40;20076;-59
2021/06/18 04:52:22;;;;;;;17.75;10.50;;;;;;;;;;3581159;40;20097;-59
2021/06/18 04:54:54;;;;;;;12.90;11.35;;;;;;;;;;3572030;40;20170;-59
2021/06/18 04:57:19;;;;;;;13.25;11.98;;;;;;;;;;3582219;40;20507;-59
2021/06/18 04:59:45;;;;;;;12.18;10.98;;;;;;;;;;3580721;40;20048;-59
2021/06/18 05:02:10;;;;;;;15.32;11.38;;;;;;;;;;3580868;40;20044;-59
2021/06/18 05:04:35;;;;;;;12.07;10.57;;;;;;;;;;3581403;40;20048;-59
2021/06/18 05:07:01;;;;;;;12.95;11.05;;;;;;;;;;3580315;40;20372;-59
2021/06/18 05:09:26;;;;;;;14.90;9.95;;;;;;;;;;3580841;40;20045;-59
2021/06/18 05:12:01;;;;;;;12.15;9.60;;;;;;;;;;3581340;40;20037;-59
2021/06/18 05:15:24;;;;;;;;;;;;;;;;;;;;;
2021/06/18 05:26:41;;;;;;;;;;;;;;;;;;;;;
2021/06/18 05:30:36;;;;;;;10.68;9.57;;;;;;;;;;3558801;40;20093;-59
2021/06/18 05:34:01;;;;;;;14.30;9.70;;;;;;;;;;3551639;40;20440;-59
2021/06/18 05:37:25;;;;;;;13.93;9.05;;;;;;;;;;3542052;40;20070;-59
2021/06/18 05:40:42;;;;;;;11.88;9.70;;;;;;;;;;3557590;40;20051;-60
2021/06/18 05:44:22;;;;;;;;;;;;;;;;;;;;;
2021/06/18 05:47:29;;;;;;;13.68;10.45;;;;;;;;;;3525473;40;20061;-60
2021/06/18 05:50:21;;;;;;;16.95;10.00;;;;;;;;;;3530540;40;20077;-60
2021/06/18 05:53:57;;;;;;;11.65;10.27;;;;;;;;;;3543607;40;20037;-60
2021/06/18 06:00:37;;;;;;;14.80;10.15;;;;;;;;;;3501187;40;20055;-60
2021/06/18 06:07:54;;;;;;;13.68;9.48;;;;;;;;;;3530572;40;20860;-59
2021/06/18 06:11:10;;;;;;;14.55;10.25;;;;;;;;;;3508018;40;20375;-60
2021/06/18 06:18:23;;;;;;;12.80;11.20;;;;;;;;;;3494576;41;20041;-60
2021/06/18 06:22:05;;;;;;;;;;;;;;;;;;;;;
2021/06/18 06:25:29;;;;;;;12.63;9.82;;;;;;;;;;3535609;40;20091;-60
2021/06/18 06:28:48;;;;;;;13.25;11.90;;;;;;;;;;3546303;40;20061;-60
2021/06/18 06:32:16;;;;;;;;;;;;;;;;;;;;;
2021/06/18 06:35:58;;;;;;;11.38;9.48;;;;;;;;;;3530381;40;20032;-60
2021/06/18 06:39:33;;;;;;;12.00;9.93;;;;;;;;;;3498627;41;20029;-60
2021/06/18 06:47:04;;;;;;;11.13;9.07;;;;;;;;;;3507733;40;20030;-60
2021/06/18 06:50:28;;;;;;;13.02;10.27;;;;;;;;;;3497839;40;20039;-60
2021/06/18 06:53:57;;;;;;;10.43;8.88;;;;;;;;;;3520492;40;20364;-60
2021/06/18 06:58:22;;;;;;;11.27;9.35;;;;;;;;;;3526551;40;20055;-60
2021/06/18 07:01:57;;;;;;;;;;;;;;;;;;;;;
2021/06/18 07:09:25;;;;;;;11.07;9.60;;;;;;;;;;3530716;40;20046;-60
2021/06/18 07:13:09;;;;;;;17.75;8.98;;;;;;;;;;3503802;40;20035;-60
2021/06/18 07:20:09;;;;;;;10.88;9.13;;;;;;;;;;3532677;40;20037;-61
2021/06/18 07:23:44;;;;;;;14.65;9.40;;;;;;;;;;3547098;40;20124;-61
2021/06/18 07:27:20;;;;;;;;;;;;;;;;;;;;;
2021/06/18 07:30:34;;;;;;;13.15;9.30;;;;;;;;;;3537778;40;20317;-60
2021/06/18 07:37:34;;;;;;;13.90;8.48;;;;;;;;;;3583543;40;20249;-60
2021/06/18 07:41:30;;;;;;;;;;;;;;;;;;;;;
2021/06/18 07:49:08;;;;;;;11.63;9.15;;;;;;;;;;3503367;40;20032;-61
2021/06/18 07:52:36;;;;;;;14.55;9.10;;;;;;;;;;3541549;40;20050;-61
2021/06/18 07:55:53;;;;;;;10.23;8.50;;;;;;;;;;3556919;40;20040;-61
2021/06/18 08:03:13;;;;;;;;;;;;;;;;;;;;;
2021/06/18 08:06:43;;;;;;;11.32;8.07;;;;;;;;;;3540586;40;20098;-61
2021/06/18 08:10:01;;;;;;;10.25;7.82;;;;;;;;;;3548401;40;20044;-61
2021/06/18 08:13:28;;;;;;;11.55;7.38;;;;;;;;;;3578566;40;20066;-60
2021/06/18 08:16:45;;;;;;;;;;;;;;;;;;;;;
2021/06/18 08:19:37;;;;;;;13.85;7.07;;;;;;;;;;3581412;40;20086;-60
2021/06/18 08:22:58;;;;;;;;;;;;;;;;;;;;;
2021/06/18 08:30:31;;;;;;;;;;;;;;;;;;;;;
2021/06/18 08:33:42;;;;;;;;;;;;;;;;;;;;;
2021/06/18 08:37:13;;;;;;;10.25;7.05;;;;;;;;;;3580957;40;20054;-60
2021/06/18 08:40:16;;;;;;;10.05;6.50;;;;;;;;;;3582645;40;20051;-60
2021/06/18 08:43:04;;;;;;;9.80;6.82;;;;;;;;;;3571083;40;20456;-60
2021/06/18 08:50:23;;;;;;;;;;;;;;;;;;;;;
2021/06/18 08:57:32;;;;;;;9.32;7.25;;;;;;;;;;3547158;40;20155;-61
2021/06/18 09:00:54;;;;;;;10.13;7.47;;;;;;;;;;3516034;40;20035;-61
2021/06/18 09:04:16;;;;;;;7.88;6.57;;;;;;;;;;3582284;40;20041;-61
2021/06/18 09:08:08;;;;;;;10.52;6.60;;;;;;;;;;3567867;40;20392;-61
2021/06/18 09:11:02;;;;;;;11.32;8.60;;;;;;;;;;3570945;40;20084;-61
2021/06/18 09:20:39;;;;;;;10.45;7.60;;;;;;;;;;3550226;40;20042;-59
2021/06/18 09:24:02;;;;;;;9.25;7.55;;;;;;;;;;3580375;40;20049;-61
2021/06/18 09:27:33;;;;;;;10.43;8.23;;;;;;;;;;3574784;40;20159;-61
2021/06/18 09:31:08;;;;;;;11.60;8.23;;;;;;;;;;3579140;40;20032;-61
2021/06/18 09:34:14;;;;;;;10.68;7.78;;;;;;;;;;3572424;40;20037;-61
2021/06/18 09:37:35;;;;;;;;;;;;;;;;;;;;;
2021/06/18 09:41:22;;;;;;;7.90;7.20;;;;;;;;;;3581059;40;20133;-61
2021/06/18 09:48:36;;;;;;;;;;;;;;;;;;;;;
2021/06/18 09:51:52;;;;;;;9.10;7.43;;;;;;;;;;3564572;40;20379;-61
2021/06/18 09:55:12;;;;;;;9.70;7.45;;;;;;;;;;3576356;40;20137;-60
2021/06/18 09:58:11;;;;;;;11.18;8.02;;;;;;;;;;3580834;40;20051;-61
2021/06/18 10:04:43;;;;;;;10.00;7.40;;;;;;;;;;3581996;40;20036;-61
2021/06/18 10:07:50;;;;;;;12.27;7.63;;;;;;;;;;3543899;40;20089;-61
2021/06/18 10:14:06;;;;;;;8.68;6.90;;;;;;;;;;3544798;40;20034;-62
2021/06/18 10:21:23;;;;;;;;;;;;;;;;;;;;;
2021/06/18 10:28:11;;;;;;;11.45;6.95;;;;;;;;;;3516369;40;20099;-62
2021/06/18 10:30:58;;;;;;;7.18;6.20;;;;;;;;;;3531876;40;20029;-63
2021/06/18 10:33:26;;;;;;;9.40;5.90;;;;;;;;;;3580806;40;20057;-63
2021/06/18 10:35:58;;;;;;;6.93;5.82;;;;;;;;;;3579937;40;20041;-62
2021/06/18 10:38:27;;;;;;;6.10;5.20;;;;;;;;;;3579139;40;20052;-62
2021/06/18 10:40:54;;;;;;;7.07;5.03;;;;;;;;;;3580835;40;20037;-64
2021/06/18 10:43:19;;;;;;;9.77;5.53;;;;;;;;;;3581632;40;20314;-63
2021/06/18 10:46:01;;;;;;;8.05;6.47;;;;;;;;;;3581024;40;20241;-62
2021/06/18 10:48:55;;;;;;;7.43;6.20;;;;;;;;;;3579694;40;20068;-62
2021/06/18 10:51:26;;;;;;;10.63;6.68;;;;;;;;;;3581266;40;20064;-66
2021/06/18 10:54:11;;;;;;;8.65;5.90;;;;;;;;;;3579594;40;20070;-63
2021/06/18 10:56:49;;;;;;;7.63;5.93;;;;;;;;;;3581808;40;20451;-62
2021/06/18 10:59:29;;;;;;;7.10;5.53;;;;;;;;;;3579245;40;20080;-62
2021/06/18 11:01:56;;;;;;;8.07;5.05;;;;;;;;;;3579826;40;20277;-63
2021/06/18 11:04:41;;;;;;;5.40;4.28;;;;;;;;;;3578745;40;20412;-62
2021/06/18 11:07:37;;;;;;;8.10;5.32;;;;;;;;;;3580397;40;20055;-62
2021/06/18 11:10:06;;;;;;;7.93;5.57;;;;;;;;;;3573415;40;20040;-62
2021/06/18 11:12:39;;;;;;;6.65;5.63;;;;;;;;;;3580200;40;20158;-62
2021/06/18 11:15:07;;;;;;;7.53;6.05;;;;;;;;;;3580027;40;20069;-62
2021/06/18 11:17:39;;;;;;;7.47;5.97;;;;;;;;;;3580504;40;20049;-63
2021/06/18 11:20:10;;;;;;;10.70;6.20;;;;;;;;;;3580871;39;20051;-64
2021/06/18 11:22:49;;;;;;;8.88;5.55;;;;;;;;;;3581622;40;20052;-63
2021/06/18 11:25:36;;;;;;;8.77;5.00;;;;;;;;;;3580424;40;20138;-64
2021/06/18 11:28:27;;;;;;;8.82;4.80;;;;;;;;;;3579524;40;20446;-63
2021/06/18 11:30:55;;;;;;;6.07;4.53;;;;;;;;;;3579996;40;20045;-63
2021/06/18 11:33:39;;;;;;;6.05;4.72;;;;;;;;;;3579062;40;20037;-64
2021/06/18 11:36:14;;;;;;;6.35;4.78;;;;;;;;;;3580464;40;20519;-64
2021/06/18 11:38:40;;;;;;;8.52;4.95;;;;;;;;;;3580417;40;20040;-64
2021/06/18 11:41:10;;;;;;;5.13;4.55;;;;;;;;;;3579877;40;20036;-63
2021/06/18 11:43:40;;;;;;;12.20;5.30;;;;;;;;;;3580896;40;20726;-63
2021/06/18 11:46:06;;;;;;;7.05;4.70;;;;;;;;;;3580346;40;20064;-64
2021/06/18 11:48:32;;;;;;;7.10;4.75;;;;;;;;;;3580639;40;20067;-64
2021/06/18 11:50:59;;;;;;;5.95;5.07;;;;;;;;;;3582412;40;20048;-64
2021/06/18 11:53:38;;;;;;;8.07;4.78;;;;;;;;;;3582364;40;20052;-64
2021/06/18 11:56:05;;;;;;;7.22;3.90;;;;;;;;;;3581593;40;20040;-64
2021/06/18 11:58:33;;;;;;;6.78;3.97;;;;;;;;;;3582000;40;20262;-63
2021/06/18 12:01:15;;;;;;;5.88;3.78;;;;;;;;;;3582443;40;20074;-62
2021/06/18 12:03:45;;;;;;;6.57;4.32;;;;;;;;;;3580025;40;20417;-63
2021/06/18 12:06:30;;;;;;;5.28;3.63;;;;;;;;;;3582523;40;20072;-64
2021/06/18 12:09:07;;;;;;;7.80;4.10;;;;;;;;;;3582568;40;20065;-63
2021/06/18 12:11:36;;;;;;;10.13;4.40;;;;;;;;;;3581646;40;20272;-63
2021/06/18 12:14:02;;;;;;;8.23;4.67;;;;;;;;;;3580640;40;20375;-64
2021/06/18 12:16:30;;;;;;;7.63;3.70;;;;;;;;;;3582275;40;20118;-63
2021/06/18 12:18:56;;;;;;;5.03;3.70;;;;;;;;;;3582631;40;20040;-64
2021/06/18 12:21:26;;;;;;;9.20;4.63;;;;;;;;;;3581049;40;20127;-64
2021/06/18 12:24:03;;;;;;;4.85;4.03;;;;;;;;;;3582125;40;20052;-64
2021/06/18 12:26:29;;;;;;;7.75;3.85;;;;;;;;;;3581100;40;20426;-64
2021/06/18 12:28:54;;;;;;;6.65;4.57;;;;;;;;;;3580277;40;20037;-63
2021/06/18 12:31:20;;;;;;;5.10;3.90;;;;;;;;;;3580706;40;20523;-63
2021/06/18 12:33:47;;;;;;;10.13;4.25;;;;;;;;;;3581618;40;20036;-64
2021/06/18 12:36:20;;;;;;;6.20;4.50;;;;;;;;;;3580910;40;20118;-64
2021/06/18 12:38:46;;;;;;;9.98;4.22;;;;;;;;;;3582624;40;20035;-63
2021/06/18 12:41:29;;;;;;;5.35;4.15;;;;;;;;;;3582679;40;20063;-64
2021/06/18 12:44:05;;;;;;;5.43;4.20;;;;;;;;;;3582463;40;20021;-63
2021/06/18 12:46:31;;;;;;;20.63;4.78;;;;;;;;;;3582651;40;20048;-63
2021/06/18 12:49:08;;;;;;;5.85;4.28;;;;;;;;;;3582067;40;20047;-63
2021/06/18 12:51:35;;;;;;;7.45;5.15;;;;;;;;;;3582577;40;20063;-63
2021/06/18 12:54:08;;;;;;;8.20;4.60;;;;;;;;;;3580196;40;20035;-63
2021/06/18 12:56:44;;;;;;;8.60;4.78;;;;;;;;;;3572140;40;20048;-63
2021/06/18 12:59:12;;;;;;;7.68;4.82;;;;;;;;;;3581599;40;20072;-62
2021/06/18 13:01:39;;;;;;;9.63;4.90;;;;;;;;;;3580148;40;20377;-63
2021/06/18 13:04:07;;;;;;;6.13;4.45;;;;;;;;;;3581829;40;20060;-62
2021/06/18 13:06:43;;;;;;;6.35;4.70;;;;;;;;;;3580996;40;20041;-62
2021/06/18 13:09:10;;;;;;;6.50;4.82;;;;;;;;;;3582713;40;20045;-62
2021/06/18 13:11:37;;;;;;;6.70;4.43;;;;;;;;;;3580670;40;20040;-62
2021/06/18 13:14:25;;;;;;;7.50;4.85;;;;;;;;;;3581124;40;20044;-63
2021/06/18 13:16:56;;;;;;;7.10;5.07;;;;;;;;;;3578987;40;20021;-62
2021/06/18 13:19:48;;;;;;;8.10;4.70;;;;;;;;;;3580517;40;20372;-63
2021/06/18 13:22:26;;;;;;;5.68;4.95;;;;;;;;;;3580508;40;20373;-63
2021/06/18 13:25:02;;;;;;;5.55;4.68;;;;;;;;;;3582123;40;20049;-64
2021/06/18 13:27:30;;;;;;;9.27;4.80;;;;;;;;;;3581349;40;20041;-64
2021/06/18 13:30:08;;;;;;;6.95;4.93;;;;;;;;;;3580103;40;20114;-63
2021/06/18 13:32:44;;;;;;;4.90;4.40;;;;;;;;;;3581346;40;20044;-63
2021/06/18 13:35:14;;;;;;;6.75;4.30;;;;;;;;;;3580695;40;20050;-63
2021/06/18 13:37:42;;;;;;;7.70;4.57;;;;;;;;;;3579941;40;20032;-63
2021/06/18 13:40:34;;;;;;;7.05;4.57;;;;;;;;;;3581680;40;20029;-63
2021/06/18 13:43:00;;;;;;;6.68;4.82;;;;;;;;;;3581537;40;20110;-62
2021/06/18 13:45:26;;;;;;;7.60;4.47;;;;;;;;;;3580223;40;20033;-63
2021/06/18 13:47:56;;;;;;;7.35;5.00;;;;;;;;;;3581704;40;20252;-64
2021/06/18 13:50:22;;;;;;;9.30;4.18;;;;;;;;;;3579825;40;20411;-64
2021/06/18 13:52:47;;;;;;;6.97;4.82;;;;;;;;;;3580741;40;20044;-65
2021/06/18 13:55:13;;;;;;;7.57;4.50;;;;;;;;;;3580919;40;20029;-64
2021/06/18 13:57:39;;;;;;;7.55;4.30;;;;;;;;;;3581633;40;20364;-64
2021/06/18 14:00:06;;;;;;;9.63;5.65;;;;;;;;;;3579911;40;20052;-64
2021/06/18 14:02:31;;;;;;;8.48;4.63;;;;;;;;;;3572086;40;20309;-64
2021/06/18 14:04:57;;;;;;;10.07;5.00;;;;;;;;;;3581864;40;20040;-64
2021/06/18 14:07:22;;;;;;;6.38;4.88;;;;;;;;;;3580035;40;20119;-64
2021/06/18 14:09:48;;;;;;;7.90;4.47;;;;;;;;;;3582158;40;20039;-63
2021/06/18 14:12:15;;;;;;;12.55;5.07;;;;;;;;;;3580898;40;20033;-64
2021/06/18 14:15:01;;;;;;;4.90;3.95;;;;;;;;;;3580198;40;20036;-64
2021/06/18 14:17:31;;;;;;;9.05;5.28;;;;;;;;;;3581004;40;20048;-63
2021/06/18 14:19:59;;;;;;;6.97;4.57;;;;;;;;;;3578159;40;20033;-63
2021/06/18 14:22:25;;;;;;;6.53;4.55;;;;;;;;;;3579054;40;20040;-62
2021/06/18 14:24:51;;;;;;;5.57;4.43;;;;;;;;;;3569561;40;20031;-66
2021/06/18 14:27:16;;;;;;;5.40;4.40;;;;;;;;;;3579669;40;20037;-64
2021/06/18 14:29:42;;;;;;;17.55;4.90;;;;;;;;;;3580429;40;20039;-64
2021/06/18 14:32:09;;;;;;;11.68;5.05;;;;;;;;;;3580172;40;20060;-64
2021/06/18 14:34:35;;;;;;;9.98;5.03;;;;;;;;;;3573647;40;20036;-63
2021/06/18 14:37:03;;;;;;;7.30;5.32;;;;;;;;;;3579463;40;20460;-63
2021/06/18 14:39:28;;;;;;;6.18;4.85;;;;;;;;;;3581504;40;20269;-63
2021/06/18 14:41:54;;;;;;;11.25;5.70;;;;;;;;;;3580508;40;20036;-63
2021/06/18 14:44:20;;;;;;;6.88;5.00;;;;;;;;;;3580692;40;20043;-64
2021/06/18 14:46:45;;;;;;;7.55;5.38;;;;;;;;;;3581374;40;20033;-63
2021/06/18 14:49:11;;;;;;;10.05;4.95;;;;;;;;;;3581495;40;20068;-63
2021/06/18 14:51:37;;;;;;;8.55;5.95;;;;;;;;;;3581911;40;20040;-63
2021/06/18 14:54:09;;;;;;;18.80;6.20;;;;;;;;;;3580864;40;20057;-64
2021/06/18 14:56:36;;;;;;;8.45;5.82;;;;;;;;;;3579060;40;20108;-64
2021/06/18 14:59:02;;;;;;;9.07;5.95;;;;;;;;;;3580064;40;20044;-64
2021/06/18 15:01:28;;;;;;;7.32;5.68;;;;;;;;;;3579912;40;20054;-64
2021/06/18 15:03:53;;;;;;;8.95;6.32;;;;;;;;;;3581188;40;20045;-64
2021/06/18 15:06:20;;;;;;;10.52;7.03;;;;;;;;;;3581153;40;20473;-65
2021/06/18 15:08:46;;;;;;;9.13;5.97;;;;;;;;;;3580865;40;20044;-64
2021/06/18 15:11:11;;;;;;;10.68;6.53;;;;;;;;;;3580359;40;20059;-64
2021/06/18 15:13:36;;;;;;;10.20;6.63;;;;;;;;;;3580679;40;20041;-64
2021/06/18 15:16:02;;;;;;;8.15;6.82;;;;;;;;;;3580854;40;20037;-63
2021/06/18 15:18:27;;;;;;;9.07;7.03;;;;;;;;;;3580884;40;20293;-64
2021/06/18 15:20:53;;;;;;;14.57;6.40;;;;;;;;;;3580237;40;20117;-63
2021/06/18 15:23:18;;;;;;;9.57;6.30;;;;;;;;;;3580173;40;20032;-64
2021/06/18 15:25:44;;;;;;;8.90;6.28;;;;;;;;;;3581581;40;20036;-64
2021/06/18 15:28:09;;;;;;;10.75;7.40;;;;;;;;;;3581622;40;20029;-64
2021/06/18 15:30:35;;;;;;;8.45;6.57;;;;;;;;;;3581792;40;20048;-64
2021/06/18 15:33:01;;;;;;;7.55;6.68;;;;;;;;;;3581936;40;20048;-64
2021/06/18 15:35:27;;;;;;;8.68;7.05;;;;;;;;;;3582891;40;20329;-64
2021/06/18 15:37:52;;;;;;;8.25;7.10;;;;;;;;;;3581349;40;20040;-63
2021/06/18 15:40:18;;;;;;;6.75;6.00;;;;;;;;;;3582817;40;20782;-64
2021/06/18 15:42:44;;;;;;;12.25;7.32;;;;;;;;;;3581545;40;20028;-64
2021/06/18 15:45:10;;;;;;;9.02;7.05;;;;;;;;;;3573003;40;20276;-63
2021/06/18 15:47:36;;;;;;;10.05;7.15;;;;;;;;;;3580604;40;20044;-65
2021/06/18 15:50:04;;;;;;;11.70;7.15;;;;;;;;;;3573001;40;20043;-65
2021/06/18 15:52:30;;;;;;;10.93;6.63;;;;;;;;;;3581367;40;20126;-65
2021/06/18 15:54:55;;;;;;;11.57;7.10;;;;;;;;;;3580785;40;20037;-65
2021/06/18 15:57:21;;;;;;;8.32;7.43;;;;;;;;;;3581059;40;20037;-63
2021/06/18 15:59:46;;;;;;;10.02;7.60;;;;;;;;;;3581496;40;20076;-65
2021/06/18 16:02:11;;;;;;;8.23;7.25;;;;;;;;;;3581378;40;20043;-65
2021/06/18 16:04:37;;;;;;;8.13;7.18;;;;;;;;;;3581195;40;20036;-65
2021/06/18 16:07:03;;;;;;;9.07;7.10;;;;;;;;;;3582999;40;20063;-65
2021/06/18 16:09:28;;;;;;;12.05;7.45;;;;;;;;;;3580790;40;20029;-64
2021/06/18 16:11:54;;;;;;;10.82;7.25;;;;;;;;;;3582919;40;20132;-65
2021/06/18 16:14:19;;;;;;;10.52;6.82;;;;;;;;;;3582456;40;20044;-65
2021/06/18 16:16:45;;;;;;;10.02;7.10;;;;;;;;;;3582033;40;20049;-64
2021/06/18 16:19:16;;;;;;;11.20;7.18;;;;;;;;;;3581121;40;20057;-63
2021/06/18 16:21:43;;;;;;;7.38;6.60;;;;;;;;;;3580118;40;20047;-63
2021/06/18 16:24:08;;;;;;;8.18;6.72;;;;;;;;;;3581777;40;20058;-63
2021/06/18 16:26:34;;;;;;;9.30;6.53;;;;;;;;;;3581380;40;20360;-63
2021/06/18 16:28:59;;;;;;;9.02;6.43;;;;;;;;;;3582555;40;20035;-63
2021/06/18 16:31:25;;;;;;;9.75;6.05;;;;;;;;;;3581903;40;20065;-63
2021/06/18 16:33:50;;;;;;;7.28;6.38;;;;;;;;;;3581276;40;20373;-63
2021/06/18 16:36:16;;;;;;;8.95;6.93;;;;;;;;;;3582518;40;20037;-64
2021/06/18 16:38:41;;;;;;;14.13;6.75;;;;;;;;;;3582798;40;20323;-63
2021/06/18 16:41:10;;;;;;;8.48;6.45;;;;;;;;;;3581135;40;20392;-63
2021/06/18 16:43:35;;;;;;;12.27;6.70;;;;;;;;;;3576647;40;20033;-63
2021/06/18 16:46:01;;;;;;;7.95;6.40;;;;;;;;;;3579944;40;20065;-64
2021/06/18 16:48:26;;;;;;;10.57;6.68;;;;;;;;;;3581576;40;20037;-64
2021/06/18 16:50:51;;;;;;;9.35;7.28;;;;;;;;;;3581303;40;20033;-64
2021/06/18 16:53:17;;;;;;;9.95;7.20;;;;;;;;;;3580306;40;20039;-64
2021/06/18 16:55:43;;;;;;;10.25;7.03;;;;;;;;;;3581959;40;20036;-65
2021/06/18 16:58:08;;;;;;;10.32;6.60;;;;;;;;;;3581100;40;20486;-65
2021/06/18 17:00:34;;;;;;;11.73;6.30;;;;;;;;;;3583080;40;20047;-64
2021/06/18 17:03:00;;;;;;;13.30;6.68;;;;;;;;;;3580751;40;20369;-66
2021/06/18 17:05:25;;;;;;;9.25;5.97;;;;;;;;;;3581900;40;20081;-66
2021/06/18 17:07:52;;;;;;;7.70;5.93;;;;;;;;;;3580733;40;20637;-66
2021/06/18 17:10:26;;;;;;;10.88;6.75;;;;;;;;;;3580255;40;20388;-66
2021/06/18 17:13:22;;;;;;;9.35;6.22;;;;;;;;;;3575972;40;20262;-66
2021/06/18 17:15:48;;;;;;;7.68;5.88;;;;;;;;;;3580837;40;20391;-66
2021/06/18 17:18:13;;;;;;;10.18;6.03;;;;;;;;;;3581309;40;20037;-66
2021/06/18 17:20:41;;;;;;;8.27;6.22;;;;;;;;;;3580694;40;20091;-67